sensor_id;sensor_type;location;lat;lon;timestamp;temperature;humidity
16402;DHT22;8310;44.626;11.176;2023-06-22T00:00:24;27.80;48.00
16402;DHT22;8310;44.626;11.176;2023-06-22T00:02:52;27.80;48.10
16402;DHT22;8310;44.626;11.176;2023-06-22T00:05:21;27.80;48.10
16402;DHT22;8310;44.626;11.176;2023-06-22T00:07:48;27.70;48.10
16402;DHT22;8310;44.626;11.176;2023-06-22T00:10:15;27.70;48.20
16402;DHT22;8310;44.626;11.176;2023-06-22T00:12:43;27.70;48.30
16402;DHT22;8310;44.626;11.176;2023-06-22T00:15:11;27.80;48.40
16402;DHT22;8310;44.626;11.176;2023-06-22T00:17:38;27.70;48.20
16402;DHT22;8310;44.626;11.176;2023-06-22T00:20:07;27.70;48.10
16402;DHT22;8310;44.626;11.176;2023-06-22T00:22:37;27.70;48.10
16402;DHT22;8310;44.626;11.176;2023-06-22T00:25:06;27.70;48.10
16402;DHT22;8310;44.626;11.176;2023-06-22T00:27:34;27.60;48.10
16402;DHT22;8310;44.626;11.176;2023-06-22T00:30:02;27.60;48.10
16402;DHT22;8310;44.626;11.176;2023-06-22T00:32:30;27.60;48.20
16402;DHT22;8310;44.626;11.176;2023-06-22T00:34:57;27.60;48.30
16402;DHT22;8310;44.626;11.176;2023-06-22T00:37:25;27.60;48.30
16402;DHT22;8310;44.626;11.176;2023-06-22T00:39:57;27.60;48.30
16402;DHT22;8310;44.626;11.176;2023-06-22T00:42:24;27.60;48.40
16402;DHT22;8310;44.626;11.176;2023-06-22T00:44:51;27.60;48.40
16402;DHT22;8310;44.626;11.176;2023-06-22T00:47:19;27.60;48.50
16402;DHT22;8310;44.626;11.176;2023-06-22T00:49:48;27.60;48.50
16402;DHT22;8310;44.626;11.176;2023-06-22T00:52:17;27.70;48.50
16402;DHT22;8310;44.626;11.176;2023-06-22T00:54:46;27.60;48.40
16402;DHT22;8310;44.626;11.176;2023-06-22T00:57:16;27.60;48.40
16402;DHT22;8310;44.626;11.176;2023-06-22T00:59:44;27.60;48.40
16402;DHT22;8310;44.626;11.176;2023-06-22T01:02:11;27.60;48.50
16402;DHT22;8310;44.626;11.176;2023-06-22T01:04:39;27.50;48.50
16402;DHT22;8310;44.626;11.176;2023-06-22T01:07:08;27.50;48.50
16402;DHT22;8310;44.626;11.176;2023-06-22T01:09:40;27.50;48.40
16402;DHT22;8310;44.626;11.176;2023-06-22T01:12:10;27.40;48.40
16402;DHT22;8310;44.626;11.176;2023-06-22T01:14:41;27.40;48.40
16402;DHT22;8310;44.626;11.176;2023-06-22T01:17:09;27.40;48.50
16402;DHT22;8310;44.626;11.176;2023-06-22T01:19:43;27.40;48.60
16402;DHT22;8310;44.626;11.176;2023-06-22T01:22:13;27.30;48.60
16402;DHT22;8310;44.626;11.176;2023-06-22T01:24:46;27.40;48.70
16402;DHT22;8310;44.626;11.176;2023-06-22T01:27:18;27.30;48.60
16402;DHT22;8310;44.626;11.176;2023-06-22T01:29:56;27.30;48.60
16402;DHT22;8310;44.626;11.176;2023-06-22T01:32:26;27.30;48.50
16402;DHT22;8310;44.626;11.176;2023-06-22T01:34:57;27.30;48.60
16402;DHT22;8310;44.626;11.176;2023-06-22T01:37:26;27.30;48.60
16402;DHT22;8310;44.626;11.176;2023-06-22T01:39:54;27.20;48.60
16402;DHT22;8310;44.626;11.176;2023-06-22T01:42:23;27.20;48.50
16402;DHT22;8310;44.626;11.176;2023-06-22T01:44:50;27.20;48.50
16402;DHT22;8310;44.626;11.176;2023-06-22T01:47:20;27.10;48.50
16402;DHT22;8310;44.626;11.176;2023-06-22T01:49:49;27.00;48.50
16402;DHT22;8310;44.626;11.176;2023-06-22T01:52:17;27.00;48.60
16402;DHT22;8310;44.626;11.176;2023-06-22T01:54:46;27.00;48.70
16402;DHT22;8310;44.626;11.176;2023-06-22T01:57:14;27.00;48.80
16402;DHT22;8310;44.626;11.176;2023-06-22T01:59:44;27.00;48.80
16402;DHT22;8310;44.626;11.176;2023-06-22T02:02:13;27.00;48.80
16402;DHT22;8310;44.626;11.176;2023-06-22T02:04:45;27.00;48.80
16402;DHT22;8310;44.626;11.176;2023-06-22T02:07:14;26.90;48.60
16402;DHT22;8310;44.626;11.176;2023-06-22T02:09:43;26.90;48.50
16402;DHT22;8310;44.626;11.176;2023-06-22T02:12:11;26.80;48.50
16402;DHT22;8310;44.626;11.176;2023-06-22T02:14:40;26.70;48.60
16402;DHT22;8310;44.626;11.176;2023-06-22T02:17:08;26.70;48.70
16402;DHT22;8310;44.626;11.176;2023-06-22T02:19:36;26.70;48.80
16402;DHT22;8310;44.626;11.176;2023-06-22T02:22:06;26.70;48.80
16402;DHT22;8310;44.626;11.176;2023-06-22T02:24:33;26.70;48.80
16402;DHT22;8310;44.626;11.176;2023-06-22T02:27:01;26.70;48.70
16402;DHT22;8310;44.626;11.176;2023-06-22T02:29:29;26.60;48.60
16402;DHT22;8310;44.626;11.176;2023-06-22T02:31:56;26.50;48.60
16402;DHT22;8310;44.626;11.176;2023-06-22T02:34:23;26.50;48.60
16402;DHT22;8310;44.626;11.176;2023-06-22T02:36:51;26.40;48.60
16402;DHT22;8310;44.626;11.176;2023-06-22T02:39:21;26.30;48.60
16402;DHT22;8310;44.626;11.176;2023-06-22T02:41:49;26.20;48.60
16402;DHT22;8310;44.626;11.176;2023-06-22T02:44:17;26.20;48.50
16402;DHT22;8310;44.626;11.176;2023-06-22T02:46:47;26.00;48.50
16402;DHT22;8310;44.626;11.176;2023-06-22T02:49:14;26.00;48.60
16402;DHT22;8310;44.626;11.176;2023-06-22T02:51:44;25.90;48.50
16402;DHT22;8310;44.626;11.176;2023-06-22T02:54:12;25.90;48.60
16402;DHT22;8310;44.626;11.176;2023-06-22T02:56:41;25.90;48.70
16402;DHT22;8310;44.626;11.176;2023-06-22T02:59:10;25.90;48.80
16402;DHT22;8310;44.626;11.176;2023-06-22T03:01:38;25.90;48.80
16402;DHT22;8310;44.626;11.176;2023-06-22T03:04:07;25.90;48.90
16402;DHT22;8310;44.626;11.176;2023-06-22T03:06:35;25.90;48.90
16402;DHT22;8310;44.626;11.176;2023-06-22T03:09:03;25.90;48.90
16402;DHT22;8310;44.626;11.176;2023-06-22T03:11:31;25.90;48.90
16402;DHT22;8310;44.626;11.176;2023-06-22T03:14:00;26.00;49.00
16402;DHT22;8310;44.626;11.176;2023-06-22T03:16:28;25.90;48.90
16402;DHT22;8310;44.626;11.176;2023-06-22T03:18:55;25.90;48.90
16402;DHT22;8310;44.626;11.176;2023-06-22T03:21:23;25.80;48.80
16402;DHT22;8310;44.626;11.176;2023-06-22T03:23:51;25.70;48.80
16402;DHT22;8310;44.626;11.176;2023-06-22T03:26:19;25.70;48.90
16402;DHT22;8310;44.626;11.176;2023-06-22T03:28:46;25.70;49.00
16402;DHT22;8310;44.626;11.176;2023-06-22T03:31:16;25.70;48.90
16402;DHT22;8310;44.626;11.176;2023-06-22T03:33:47;25.60;48.80
16402;DHT22;8310;44.626;11.176;2023-06-22T03:36:14;25.60;48.90
16402;DHT22;8310;44.626;11.176;2023-06-22T03:38:44;25.50;48.80
16402;DHT22;8310;44.626;11.176;2023-06-22T03:41:11;25.50;49.00
16402;DHT22;8310;44.626;11.176;2023-06-22T03:43:39;25.50;49.00
16402;DHT22;8310;44.626;11.176;2023-06-22T03:46:07;25.50;49.10
16402;DHT22;8310;44.626;11.176;2023-06-22T03:48:36;25.50;49.10
16402;DHT22;8310;44.626;11.176;2023-06-22T03:51:04;25.50;49.10
16402;DHT22;8310;44.626;11.176;2023-06-22T03:53:32;25.60;49.20
16402;DHT22;8310;44.626;11.176;2023-06-22T03:55:59;25.60;49.20
16402;DHT22;8310;44.626;11.176;2023-06-22T03:58:27;25.60;49.20
16402;DHT22;8310;44.626;11.176;2023-06-22T04:00:54;25.60;49.00
16402;DHT22;8310;44.626;11.176;2023-06-22T04:03:22;25.50;49.00
16402;DHT22;8310;44.626;11.176;2023-06-22T04:05:51;25.50;49.10
16402;DHT22;8310;44.626;11.176;2023-06-22T04:08:19;25.50;49.20
16402;DHT22;8310;44.626;11.176;2023-06-22T04:10:46;25.50;49.10
16402;DHT22;8310;44.626;11.176;2023-06-22T04:13:14;25.40;49.10
16402;DHT22;8310;44.626;11.176;2023-06-22T04:15:41;25.40;49.10
16402;DHT22;8310;44.626;11.176;2023-06-22T04:18:09;25.30;49.20
16402;DHT22;8310;44.626;11.176;2023-06-22T04:20:37;25.40;49.30
16402;DHT22;8310;44.626;11.176;2023-06-22T04:23:06;25.40;49.40
16402;DHT22;8310;44.626;11.176;2023-06-22T04:25:33;25.40;49.40
16402;DHT22;8310;44.626;11.176;2023-06-22T04:28:00;25.40;49.40
16402;DHT22;8310;44.626;11.176;2023-06-22T04:30:28;25.40;49.50
16402;DHT22;8310;44.626;11.176;2023-06-22T04:32:57;25.50;49.60
16402;DHT22;8310;44.626;11.176;2023-06-22T04:35:24;25.50;49.60
16402;DHT22;8310;44.626;11.176;2023-06-22T04:37:52;25.50;49.60
16402;DHT22;8310;44.626;11.176;2023-06-22T04:40:23;25.50;49.70
16402;DHT22;8310;44.626;11.176;2023-06-22T04:42:51;25.50;49.80
16402;DHT22;8310;44.626;11.176;2023-06-22T04:45:22;25.60;49.70
16402;DHT22;8310;44.626;11.176;2023-06-22T04:47:50;25.60;49.70
16402;DHT22;8310;44.626;11.176;2023-06-22T04:50:17;25.60;49.70
16402;DHT22;8310;44.626;11.176;2023-06-22T04:52:46;25.50;49.80
16402;DHT22;8310;44.626;11.176;2023-06-22T04:55:14;25.50;49.70
16402;DHT22;8310;44.626;11.176;2023-06-22T04:57:46;25.50;49.70
16402;DHT22;8310;44.626;11.176;2023-06-22T05:00:15;25.50;49.80
16402;DHT22;8310;44.626;11.176;2023-06-22T05:02:45;25.50;50.00
16402;DHT22;8310;44.626;11.176;2023-06-22T05:05:13;25.50;50.10
16402;DHT22;8310;44.626;11.176;2023-06-22T05:07:42;25.60;50.30
16402;DHT22;8310;44.626;11.176;2023-06-22T05:10:11;25.70;50.40
16402;DHT22;8310;44.626;11.176;2023-06-22T05:12:39;25.70;50.40
16402;DHT22;8310;44.626;11.176;2023-06-22T05:15:09;25.80;50.60
16402;DHT22;8310;44.626;11.176;2023-06-22T05:17:40;25.90;50.70
16402;DHT22;8310;44.626;11.176;2023-06-22T05:20:10;26.00;50.80
16402;DHT22;8310;44.626;11.176;2023-06-22T05:22:38;26.10;50.90
16402;DHT22;8310;44.626;11.176;2023-06-22T05:25:08;26.10;51.00
16402;DHT22;8310;44.626;11.176;2023-06-22T05:27:36;26.30;51.20
16402;DHT22;8310;44.626;11.176;2023-06-22T05:30:06;26.40;51.20
16402;DHT22;8310;44.626;11.176;2023-06-22T05:32:35;26.50;51.20
16402;DHT22;8310;44.626;11.176;2023-06-22T05:35:03;26.60;51.10
16402;DHT22;8310;44.626;11.176;2023-06-22T05:37:31;26.60;51.10
16402;DHT22;8310;44.626;11.176;2023-06-22T05:39:59;26.70;51.20
16402;DHT22;8310;44.626;11.176;2023-06-22T05:42:26;26.80;51.30
16402;DHT22;8310;44.626;11.176;2023-06-22T05:44:54;26.80;51.40
16402;DHT22;8310;44.626;11.176;2023-06-22T05:47:22;26.90;51.40
16402;DHT22;8310;44.626;11.176;2023-06-22T05:49:51;27.00;51.60
16402;DHT22;8310;44.626;11.176;2023-06-22T05:52:18;27.10;51.60
16402;DHT22;8310;44.626;11.176;2023-06-22T05:54:46;27.20;51.70
16402;DHT22;8310;44.626;11.176;2023-06-22T05:57:14;27.30;51.80
16402;DHT22;8310;44.626;11.176;2023-06-22T05:59:42;27.40;51.90
16402;DHT22;8310;44.626;11.176;2023-06-22T06:02:09;27.50;51.80
16402;DHT22;8310;44.626;11.176;2023-06-22T06:04:37;27.50;52.30
16402;DHT22;8310;44.626;11.176;2023-06-22T06:07:06;27.60;51.70
16402;DHT22;8310;44.626;11.176;2023-06-22T06:09:34;27.70;51.70
16402;DHT22;8310;44.626;11.176;2023-06-22T06:12:02;27.70;51.60
16402;DHT22;8310;44.626;11.176;2023-06-22T06:14:30;27.70;51.60
16402;DHT22;8310;44.626;11.176;2023-06-22T06:16:58;27.70;51.60
16402;DHT22;8310;44.626;11.176;2023-06-22T06:19:25;27.70;51.50
16402;DHT22;8310;44.626;11.176;2023-06-22T06:21:54;27.80;51.60
16402;DHT22;8310;44.626;11.176;2023-06-22T06:24:23;27.80;51.60
16402;DHT22;8310;44.626;11.176;2023-06-22T06:26:51;27.80;51.40
16402;DHT22;8310;44.626;11.176;2023-06-22T06:29:19;27.80;51.30
16402;DHT22;8310;44.626;11.176;2023-06-22T06:31:46;27.70;51.30
16402;DHT22;8310;44.626;11.176;2023-06-22T06:34:14;27.80;51.50
16402;DHT22;8310;44.626;11.176;2023-06-22T06:36:41;27.80;52.10
16402;DHT22;8310;44.626;11.176;2023-06-22T06:39:09;27.80;51.40
16402;DHT22;8310;44.626;11.176;2023-06-22T06:41:38;27.80;51.50
16402;DHT22;8310;44.626;11.176;2023-06-22T06:44:06;27.90;51.80
16402;DHT22;8310;44.626;11.176;2023-06-22T06:46:34;27.90;51.80
16402;DHT22;8310;44.626;11.176;2023-06-22T06:49:01;28.00;51.80
16402;DHT22;8310;44.626;11.176;2023-06-22T06:51:29;28.00;51.70
16402;DHT22;8310;44.626;11.176;2023-06-22T06:53:56;28.10;51.90
16402;DHT22;8310;44.626;11.176;2023-06-22T06:56:24;28.10;51.90
16402;DHT22;8310;44.626;11.176;2023-06-22T06:58:53;28.20;52.20
16402;DHT22;8310;44.626;11.176;2023-06-22T07:01:20;28.30;52.50
16402;DHT22;8310;44.626;11.176;2023-06-22T07:03:48;28.50;52.70
16402;DHT22;8310;44.626;11.176;2023-06-22T07:06:15;28.60;52.80
16402;DHT22;8310;44.626;11.176;2023-06-22T07:08:43;28.80;53.10
16402;DHT22;8310;44.626;11.176;2023-06-22T07:11:10;29.00;53.20
16402;DHT22;8310;44.626;11.176;2023-06-22T07:13:38;29.20;53.30
16402;DHT22;8310;44.626;11.176;2023-06-22T07:16:07;29.40;53.40
16402;DHT22;8310;44.626;11.176;2023-06-22T07:18:36;29.50;53.30
16402;DHT22;8310;44.626;11.176;2023-06-22T07:21:04;29.60;53.10
16402;DHT22;8310;44.626;11.176;2023-06-22T07:23:32;29.60;53.00
16402;DHT22;8310;44.626;11.176;2023-06-22T07:26:00;29.60;53.00
16402;DHT22;8310;44.626;11.176;2023-06-22T07:28:27;29.60;53.00
16402;DHT22;8310;44.626;11.176;2023-06-22T07:30:56;29.70;53.20
16402;DHT22;8310;44.626;11.176;2023-06-22T07:33:25;29.80;53.30
16402;DHT22;8310;44.626;11.176;2023-06-22T07:35:53;30.00;53.60
16402;DHT22;8310;44.626;11.176;2023-06-22T07:38:20;30.10;53.60
16402;DHT22;8310;44.626;11.176;2023-06-22T07:40:48;30.30;53.90
16402;DHT22;8310;44.626;11.176;2023-06-22T07:43:16;30.50;54.00
16402;DHT22;8310;44.626;11.176;2023-06-22T07:45:47;30.60;53.90
16402;DHT22;8310;44.626;11.176;2023-06-22T07:48:20;30.80;54.00
16402;DHT22;8310;44.626;11.176;2023-06-22T07:50:50;30.90;54.00
16402;DHT22;8310;44.626;11.176;2023-06-22T07:53:18;31.10;54.10
16402;DHT22;8310;44.626;11.176;2023-06-22T07:55:46;31.20;54.10
16402;DHT22;8310;44.626;11.176;2023-06-22T07:58:13;31.40;54.10
16402;DHT22;8310;44.626;11.176;2023-06-22T08:00:41;31.50;54.00
16402;DHT22;8310;44.626;11.176;2023-06-22T08:03:09;31.60;54.10
16402;DHT22;8310;44.626;11.176;2023-06-22T08:05:36;31.70;54.10
16402;DHT22;8310;44.626;11.176;2023-06-22T08:08:05;31.80;54.10
16402;DHT22;8310;44.626;11.176;2023-06-22T08:10:33;31.90;54.10
16402;DHT22;8310;44.626;11.176;2023-06-22T08:13:01;32.10;54.20
16402;DHT22;8310;44.626;11.176;2023-06-22T08:15:29;32.20;54.00
16402;DHT22;8310;44.626;11.176;2023-06-22T08:17:56;32.30;53.80
16402;DHT22;8310;44.626;11.176;2023-06-22T08:20:24;32.30;53.80
16402;DHT22;8310;44.626;11.176;2023-06-22T08:22:53;32.40;54.00
16402;DHT22;8310;44.626;11.176;2023-06-22T08:25:22;32.50;54.00
16402;DHT22;8310;44.626;11.176;2023-06-22T08:27:50;32.50;53.80
16402;DHT22;8310;44.626;11.176;2023-06-22T08:30:18;32.60;53.90
16402;DHT22;8310;44.626;11.176;2023-06-22T08:32:45;32.70;54.00
16402;DHT22;8310;44.626;11.176;2023-06-22T08:35:13;32.70;54.10
16402;DHT22;8310;44.626;11.176;2023-06-22T08:37:41;32.90;54.20
16402;DHT22;8310;44.626;11.176;2023-06-22T08:40:09;32.90;54.20
16402;DHT22;8310;44.626;11.176;2023-06-22T08:42:39;33.00;54.20
16402;DHT22;8310;44.626;11.176;2023-06-22T08:45:07;33.20;54.40
16402;DHT22;8310;44.626;11.176;2023-06-22T08:47:34;33.30;54.40
16402;DHT22;8310;44.626;11.176;2023-06-22T08:50:02;33.40;54.30
16402;DHT22;8310;44.626;11.176;2023-06-22T08:52:30;33.50;54.40
16402;DHT22;8310;44.626;11.176;2023-06-22T08:54:57;33.60;54.30
16402;DHT22;8310;44.626;11.176;2023-06-22T08:57:25;33.70;54.30
16402;DHT22;8310;44.626;11.176;2023-06-22T08:59:54;33.80;54.40
16402;DHT22;8310;44.626;11.176;2023-06-22T09:02:23;33.90;54.40
16402;DHT22;8310;44.626;11.176;2023-06-22T09:04:50;34.00;54.40
16402;DHT22;8310;44.626;11.176;2023-06-22T09:07:21;34.20;54.50
16402;DHT22;8310;44.626;11.176;2023-06-22T09:09:52;34.30;54.40
16402;DHT22;8310;44.626;11.176;2023-06-22T09:12:20;34.40;54.40
16402;DHT22;8310;44.626;11.176;2023-06-22T09:14:51;34.50;54.40
16402;DHT22;8310;44.626;11.176;2023-06-22T09:17:20;34.60;54.50
16402;DHT22;8310;44.626;11.176;2023-06-22T09:19:48;34.70;54.40
16402;DHT22;8310;44.626;11.176;2023-06-22T09:22:16;34.80;54.40
16402;DHT22;8310;44.626;11.176;2023-06-22T09:24:44;34.80;54.20
16402;DHT22;8310;44.626;11.176;2023-06-22T09:27:12;34.90;54.20
16402;DHT22;8310;44.626;11.176;2023-06-22T09:29:40;34.90;54.20
16402;DHT22;8310;44.626;11.176;2023-06-22T09:32:08;34.90;54.20
16402;DHT22;8310;44.626;11.176;2023-06-22T09:34:38;35.00;54.30
16402;DHT22;8310;44.626;11.176;2023-06-22T09:37:06;35.10;54.30
16402;DHT22;8310;44.626;11.176;2023-06-22T09:39:33;35.20;54.40
16402;DHT22;8310;44.626;11.176;2023-06-22T09:42:01;35.30;54.40
16402;DHT22;8310;44.626;11.176;2023-06-22T09:44:29;35.40;54.20
16402;DHT22;8310;44.626;11.176;2023-06-22T09:46:57;35.40;54.20
16402;DHT22;8310;44.626;11.176;2023-06-22T09:49:25;35.50;54.30
16402;DHT22;8310;44.626;11.176;2023-06-22T09:51:54;35.60;54.40
16402;DHT22;8310;44.626;11.176;2023-06-22T09:54:22;35.80;54.50
16402;DHT22;8310;44.626;11.176;2023-06-22T09:56:49;35.80;54.50
16402;DHT22;8310;44.626;11.176;2023-06-22T09:59:17;35.90;54.50
16402;DHT22;8310;44.626;11.176;2023-06-22T10:02:09;35.90;54.40
16402;DHT22;8310;44.626;11.176;2023-06-22T10:04:36;36.00;54.50
16402;DHT22;8310;44.626;11.176;2023-06-22T10:07:06;36.10;54.60
16402;DHT22;8310;44.626;11.176;2023-06-22T10:09:34;36.10;54.60
16402;DHT22;8310;44.626;11.176;2023-06-22T10:12:02;36.20;54.60
16402;DHT22;8310;44.626;11.176;2023-06-22T10:14:32;36.20;54.70
16402;DHT22;8310;44.626;11.176;2023-06-22T10:17:00;36.30;55.30
16402;DHT22;8310;44.626;11.176;2023-06-22T10:19:28;36.40;54.70
16402;DHT22;8310;44.626;11.176;2023-06-22T10:21:55;36.50;54.70
16402;DHT22;8310;44.626;11.176;2023-06-22T10:24:23;36.50;54.70
16402;DHT22;8310;44.626;11.176;2023-06-22T10:26:51;36.60;54.80
16402;DHT22;8310;44.626;11.176;2023-06-22T10:29:18;36.70;54.80
16402;DHT22;8310;44.626;11.176;2023-06-22T10:31:46;36.80;54.80
16402;DHT22;8310;44.626;11.176;2023-06-22T10:34:13;36.80;54.80
16402;DHT22;8310;44.626;11.176;2023-06-22T10:36:40;36.80;54.70
16402;DHT22;8310;44.626;11.176;2023-06-22T10:39:08;36.90;54.60
16402;DHT22;8310;44.626;11.176;2023-06-22T10:41:37;36.90;54.40
16402;DHT22;8310;44.626;11.176;2023-06-22T10:44:05;36.80;54.40
16402;DHT22;8310;44.626;11.176;2023-06-22T10:46:33;36.90;54.70
16402;DHT22;8310;44.626;11.176;2023-06-22T10:49:01;36.90;54.80
16402;DHT22;8310;44.626;11.176;2023-06-22T10:51:28;37.00;54.80
16402;DHT22;8310;44.626;11.176;2023-06-22T10:53:56;37.10;54.70
16402;DHT22;8310;44.626;11.176;2023-06-22T10:56:24;37.10;54.80
16402;DHT22;8310;44.626;11.176;2023-06-22T10:58:53;37.20;54.80
16402;DHT22;8310;44.626;11.176;2023-06-22T11:01:21;37.30;54.80
16402;DHT22;8310;44.626;11.176;2023-06-22T11:03:48;37.30;54.60
16402;DHT22;8310;44.626;11.176;2023-06-22T11:06:15;37.40;54.70
16402;DHT22;8310;44.626;11.176;2023-06-22T11:08:43;37.40;54.50
16402;DHT22;8310;44.626;11.176;2023-06-22T11:11:12;37.40;54.40
16402;DHT22;8310;44.626;11.176;2023-06-22T11:13:40;37.30;54.00
16402;DHT22;8310;44.626;11.176;2023-06-22T11:16:09;37.20;53.90
16402;DHT22;8310;44.626;11.176;2023-06-22T11:18:36;37.20;53.80
16402;DHT22;8310;44.626;11.176;2023-06-22T11:21:04;37.10;53.80
16402;DHT22;8310;44.626;11.176;2023-06-22T11:23:31;37.00;53.80
16402;DHT22;8310;44.626;11.176;2023-06-22T11:25:59;37.00;54.00
16402;DHT22;8310;44.626;11.176;2023-06-22T11:28:33;37.00;53.90
16402;DHT22;8310;44.626;11.176;2023-06-22T11:31:01;37.00;54.20
16402;DHT22;8310;44.626;11.176;2023-06-22T11:33:31;37.00;54.40
16402;DHT22;8310;44.626;11.176;2023-06-22T11:35:58;37.20;54.80
16402;DHT22;8310;44.626;11.176;2023-06-22T11:38:25;37.30;54.80
16402;DHT22;8310;44.626;11.176;2023-06-22T11:40:53;37.50;54.90
16402;DHT22;8310;44.626;11.176;2023-06-22T11:43:20;37.60;54.60
16402;DHT22;8310;44.626;11.176;2023-06-22T11:45:48;37.60;54.00
16402;DHT22;8310;44.626;11.176;2023-06-22T11:48:16;37.50;53.60
16402;DHT22;8310;44.626;11.176;2023-06-22T11:50:45;37.30;53.50
16402;DHT22;8310;44.626;11.176;2023-06-22T11:53:12;37.10;53.50
16402;DHT22;8310;44.626;11.176;2023-06-22T11:55:42;37.00;53.80
16402;DHT22;8310;44.626;11.176;2023-06-22T11:58:10;37.10;54.30
16402;DHT22;8310;44.626;11.176;2023-06-22T12:00:38;37.20;55.10
16402;DHT22;8310;44.626;11.176;2023-06-22T12:03:05;37.30;54.50
16402;DHT22;8310;44.626;11.176;2023-06-22T12:05:33;37.40;55.00
16402;DHT22;8310;44.626;11.176;2023-06-22T12:08:02;37.50;54.30
16402;DHT22;8310;44.626;11.176;2023-06-22T12:10:29;37.60;54.40
16402;DHT22;8310;44.626;11.176;2023-06-22T12:12:57;37.70;54.60
16402;DHT22;8310;44.626;11.176;2023-06-22T12:15:25;37.80;54.70
16402;DHT22;8310;44.626;11.176;2023-06-22T12:17:53;37.90;54.80
16402;DHT22;8310;44.626;11.176;2023-06-22T12:20:21;38.00;54.80
16402;DHT22;8310;44.626;11.176;2023-06-22T12:22:48;38.10;54.90
16402;DHT22;8310;44.626;11.176;2023-06-22T12:25:22;38.20;54.90
16402;DHT22;8310;44.626;11.176;2023-06-22T12:27:49;38.40;55.00
16402;DHT22;8310;44.626;11.176;2023-06-22T12:30:18;38.40;55.00
16402;DHT22;8310;44.626;11.176;2023-06-22T12:32:45;38.60;55.00
16402;DHT22;8310;44.626;11.176;2023-06-22T12:35:13;38.60;54.80
16402;DHT22;8310;44.626;11.176;2023-06-22T12:37:41;38.60;54.80
16402;DHT22;8310;44.626;11.176;2023-06-22T12:40:09;38.70;54.70
16402;DHT22;8310;44.626;11.176;2023-06-22T12:42:38;38.70;54.70
16402;DHT22;8310;44.626;11.176;2023-06-22T12:45:07;38.80;54.70
16402;DHT22;8310;44.626;11.176;2023-06-22T12:47:35;38.80;54.50
16402;DHT22;8310;44.626;11.176;2023-06-22T12:50:03;38.70;53.80
16402;DHT22;8310;44.626;11.176;2023-06-22T12:52:31;38.60;53.70
16402;DHT22;8310;44.626;11.176;2023-06-22T12:54:59;38.40;53.60
16402;DHT22;8310;44.626;11.176;2023-06-22T12:57:26;38.40;54.00
16402;DHT22;8310;44.626;11.176;2023-06-22T12:59:55;38.40;54.20
16402;DHT22;8310;44.626;11.176;2023-06-22T13:02:24;38.40;54.10
16402;DHT22;8310;44.626;11.176;2023-06-22T13:04:51;38.40;54.90
16402;DHT22;8310;44.626;11.176;2023-06-22T13:07:18;38.60;54.50
16402;DHT22;8310;44.626;11.176;2023-06-22T13:09:46;38.60;54.00
16402;DHT22;8310;44.626;11.176;2023-06-22T13:12:17;38.60;54.10
16402;DHT22;8310;44.626;11.176;2023-06-22T13:14:45;38.60;54.10
16402;DHT22;8310;44.626;11.176;2023-06-22T13:17:15;38.60;54.20
16402;DHT22;8310;44.626;11.176;2023-06-22T13:19:42;38.60;54.30
16402;DHT22;8310;44.626;11.176;2023-06-22T13:22:25;38.70;54.30
16402;DHT22;8310;44.626;11.176;2023-06-22T13:24:54;38.80;54.30
16402;DHT22;8310;44.626;11.176;2023-06-22T13:27:23;38.80;54.00
16402;DHT22;8310;44.626;11.176;2023-06-22T13:29:50;38.70;53.60
16402;DHT22;8310;44.626;11.176;2023-06-22T13:32:19;38.60;53.40
16402;DHT22;8310;44.626;11.176;2023-06-22T13:34:47;38.60;53.60
16402;DHT22;8310;44.626;11.176;2023-06-22T13:37:15;38.50;53.50
16402;DHT22;8310;44.626;11.176;2023-06-22T13:39:43;38.50;53.90
16402;DHT22;8310;44.626;11.176;2023-06-22T13:42:11;38.60;54.20
16402;DHT22;8310;44.626;11.176;2023-06-22T13:44:39;38.70;54.20
16402;DHT22;8310;44.626;11.176;2023-06-22T13:47:07;38.70;54.00
16402;DHT22;8310;44.626;11.176;2023-06-22T13:49:36;38.90;54.30
16402;DHT22;8310;44.626;11.176;2023-06-22T13:52:04;38.90;54.30
16402;DHT22;8310;44.626;11.176;2023-06-22T13:54:36;39.00;54.40
16402;DHT22;8310;44.626;11.176;2023-06-22T13:57:04;39.10;54.40
16402;DHT22;8310;44.626;11.176;2023-06-22T13:59:32;39.20;54.30
16402;DHT22;8310;44.626;11.176;2023-06-22T14:02:00;39.30;54.30
16402;DHT22;8310;44.626;11.176;2023-06-22T14:04:28;39.30;54.20
16402;DHT22;8310;44.626;11.176;2023-06-22T14:06:57;39.30;54.10
16402;DHT22;8310;44.626;11.176;2023-06-22T14:09:25;39.30;54.10
16402;DHT22;8310;44.626;11.176;2023-06-22T14:11:54;39.30;54.10
16402;DHT22;8310;44.626;11.176;2023-06-22T14:14:22;39.40;54.20
16402;DHT22;8310;44.626;11.176;2023-06-22T14:16:49;39.40;53.90
16402;DHT22;8310;44.626;11.176;2023-06-22T14:19:17;39.40;53.90
16402;DHT22;8310;44.626;11.176;2023-06-22T14:21:44;39.40;53.80
16402;DHT22;8310;44.626;11.176;2023-06-22T14:24:14;39.30;53.50
16402;DHT22;8310;44.626;11.176;2023-06-22T14:26:42;39.30;53.30
16402;DHT22;8310;44.626;11.176;2023-06-22T14:29:09;39.10;53.30
16402;DHT22;8310;44.626;11.176;2023-06-22T14:31:37;39.10;53.40
16402;DHT22;8310;44.626;11.176;2023-06-22T14:34:06;39.10;53.40
16402;DHT22;8310;44.626;11.176;2023-06-22T14:36:33;39.00;53.30
16402;DHT22;8310;44.626;11.176;2023-06-22T14:39:01;39.00;53.30
16402;DHT22;8310;44.626;11.176;2023-06-22T14:41:31;38.90;53.30
16402;DHT22;8310;44.626;11.176;2023-06-22T14:44:09;38.90;53.00
